Time;durP1;ratioP1;P1;durP2;ratioP2;P2;SDS_P1;SDS_P2;PMS_P1;PMS_P2;Temp;Humidity;BMP_temperature;BMP_pressure;BME280_temperature;BME280_humidity;BME280_pressure;Samples;Min_cycle;Max_cycle;Signal;HPM_P1;HPM_P2
2023/10/28 03:05:19;;;;;;;5.55;2.00;;;;;;;9.63;100.00;99306.66;5130334;27;20389;-68
2023/10/28 03:07:44;;;;;;;4.30;1.98;;;;;;;9.63;100.00;99306.66;5130948;28;20039;-69
2023/10/28 03:10:10;;;;;;;2.97;1.77;;;;;;;9.63;100.00;99312.06;5111528;28;20031;-69
2023/10/28 03:12:35;;;;;;;6.38;2.08;;;;;;;9.64;100.00;99302.88;5109471;28;20032;-69
2023/10/28 03:15:00;;;;;;;4.45;2.20;;;;;;;9.65;100.00;99301.00;5110314;28;20028;-69
2023/10/28 03:17:25;;;;;;;1.67;1.58;;;;;;;9.66;100.00;99300.75;5091733;28;20489;-69
2023/10/28 03:19:51;;;;;;;1.40;1.30;;;;;;;9.68;100.00;99293.19;5108846;28;20107;-69
2023/10/28 03:22:16;;;;;;;3.53;1.85;;;;;;;9.68;100.00;99298.59;5109579;28;20058;-69
2023/10/28 03:24:42;;;;;;;3.17;1.67;;;;;;;9.68;100.00;99297.78;5091821;28;20032;-69
2023/10/28 03:27:07;;;;;;;3.70;1.42;;;;;;;9.67;100.00;99305.06;5109459;28;20038;-69
2023/10/28 03:29:33;;;;;;;5.20;1.83;;;;;;;9.67;100.00;99306.94;5109475;28;20043;-69
2023/10/28 03:31:58;;;;;;;2.08;1.40;;;;;;;9.66;100.00;99306.16;5109327;28;20028;-69
2023/10/28 03:34:23;;;;;;;3.00;1.67;;;;;;;9.67;100.00;99312.34;5109716;28;20035;-69
2023/10/28 03:36:49;;;;;;;3.58;1.60;;;;;;;9.65;100.00;99307.22;5091039;28;20064;-69
2023/10/28 03:39:15;;;;;;;4.15;1.50;;;;;;;9.64;100.00;99294.75;5109649;28;20032;-69
2023/10/28 03:41:40;;;;;;;2.33;1.50;;;;;;;9.65;100.00;99304.50;5097623;28;20367;-69
2023/10/28 03:44:05;;;;;;;1.77;1.33;;;;;;;9.64;100.00;99300.16;5108389;28;20031;-68
2023/10/28 03:46:31;;;;;;;2.80;1.70;;;;;;;9.65;100.00;99304.50;5097762;28;20040;-69
2023/10/28 03:48:56;;;;;;;2.70;1.55;;;;;;;9.65;100.00;99292.91;5105921;28;20020;-69
2023/10/28 03:51:21;;;;;;;2.33;1.50;;;;;;;9.64;100.00;99302.88;5089107;28;20162;-69
2023/10/28 03:53:47;;;;;;;3.13;1.60;;;;;;;9.67;100.00;99291.53;5089130;28;20414;-68
2023/10/28 03:56:12;;;;;;;5.38;2.20;;;;;;;9.61;100.00;99297.97;5089181;28;20424;-69
2023/10/28 03:58:38;;;;;;;4.72;1.67;;;;;;;9.67;100.00;99296.94;5090687;28;20031;-69
2023/10/28 04:01:03;;;;;;;5.25;1.50;;;;;;;9.67;100.00;99294.25;5105848;28;20028;-68
2023/10/28 04:03:29;;;;;;;5.90;1.55;;;;;;;9.69;100.00;99294.81;5066147;27;20068;-69
2023/10/28 04:05:54;;;;;;;3.67;1.42;;;;;;;9.70;100.00;99296.44;5067411;28;20387;-69
2023/10/28 04:08:19;;;;;;;2.92;1.65;;;;;;;9.71;100.00;99295.38;5068452;28;20036;-69
2023/10/28 04:10:46;;;;;;;7.20;2.22;;;;;;;9.70;100.00;99290.22;5068589;28;20491;-69
2023/10/28 04:13:14;;;;;;;3.75;1.20;;;;;;;9.70;100.00;99292.94;5067368;28;20044;-70
2023/10/28 04:15:40;;;;;;;2.97;1.50;;;;;;;9.70;100.00;99291.03;5060765;28;20460;-70
2023/10/28 04:18:05;;;;;;;4.22;1.50;;;;;;;9.68;100.00;99287.78;5055348;28;20033;-70
2023/10/28 04:20:31;;;;;;;3.50;1.50;;;;;;;9.70;100.00;99282.13;5055038;28;20388;-70
2023/10/28 04:22:57;;;;;;;2.58;1.55;;;;;;;9.70;100.00;99282.13;5053799;28;20064;-70
2023/10/28 04:25:22;;;;;;;6.95;2.08;;;;;;;9.54;100.00;99276.59;5054887;28;20106;-69
2023/10/28 04:27:48;;;;;;;2.05;1.48;;;;;;;9.69;100.00;99284.03;5055244;28;20029;-70
2023/10/28 04:30:16;;;;;;;2.42;1.30;;;;;;;9.70;100.00;99274.81;5055191;28;20025;-70
2023/10/28 04:32:43;;;;;;;3.72;1.40;;;;;;;9.72;100.00;99277.25;5053606;28;20430;-70
2023/10/28 04:35:10;;;;;;;4.00;2.40;;;;;;;9.62;100.00;99272.59;5053777;28;20086;-70
2023/10/28 04:37:36;;;;;;;5.10;1.50;;;;;;;9.73;100.00;99274.31;5054650;28;20091;-69
2023/10/28 04:40:03;;;;;;;3.13;1.33;;;;;;;9.76;100.00;99275.69;5054909;28;20423;-70
2023/10/28 04:42:29;;;;;;;4.28;1.48;;;;;;;9.78;100.00;99276.22;5054611;28;20111;-70
2023/10/28 04:44:54;;;;;;;4.68;1.40;;;;;;;9.79;100.00;99272.47;5068292;28;20116;-70
2023/10/28 04:47:19;;;;;;;3.88;1.30;;;;;;;9.81;100.00;99273.00;5054495;28;20033;-70
2023/10/28 04:49:44;;;;;;;4.25;1.30;;;;;;;9.82;100.00;99271.16;5054789;28;20534;-70
2023/10/28 04:52:10;;;;;;;4.45;1.33;;;;;;;9.82;100.00;99269.25;5053338;28;20033;-70
2023/10/28 04:54:36;;;;;;;6.85;2.22;;;;;;;9.66;100.00;99260.22;5051892;28;20044;-70
2023/10/28 04:57:03;;;;;;;5.03;1.48;;;;;;;9.76;100.00;99262.97;5054303;28;20025;-71
2023/10/28 04:59:29;;;;;;;2.80;1.67;;;;;;;9.78;100.00;99256.53;5054356;28;20051;-70
2023/10/28 05:01:55;;;;;;;3.80;1.23;;;;;;;9.80;100.00;99262.47;5059352;28;20044;-70
2023/10/28 05:04:24;;;;;;;3.28;1.40;;;;;;;9.81;100.00;99261.41;5055959;28;20049;-70
2023/10/28 05:06:50;;;;;;;4.25;1.40;;;;;;;9.81;100.00;99258.69;5053053;28;20045;-70
2023/10/28 05:09:15;;;;;;;4.30;1.35;;;;;;;9.83;100.00;99253.84;5053047;28;20135;-70
2023/10/28 05:11:42;;;;;;;4.45;1.45;;;;;;;9.85;100.00;99254.41;5054176;28;20052;-70
2023/10/28 05:14:09;;;;;;;3.05;1.60;;;;;;;9.85;100.00;99244.41;5067995;28;20491;-70
2023/10/28 05:16:35;;;;;;;4.35;1.50;;;;;;;9.86;100.00;99251.44;5054007;28;20033;-70
2023/10/28 05:19:00;;;;;;;4.38;1.50;;;;;;;9.85;100.00;99246.31;5053994;28;20040;-70
2023/10/28 05:21:26;;;;;;;7.25;2.10;;;;;;;9.72;100.00;99251.09;5053995;28;20028;-70
2023/10/28 05:23:52;;;;;;;2.85;1.50;;;;;;;9.82;100.00;99255.75;5052761;28;20090;-70
2023/10/28 05:26:17;;;;;;;3.22;1.27;;;;;;;9.84;100.00;99255.47;5051805;28;20423;-70
2023/10/28 05:28:43;;;;;;;4.85;1.42;;;;;;;9.84;100.00;99264.38;5053455;28;20040;-70
2023/10/28 05:31:08;;;;;;;3.85;1.30;;;;;;;9.85;100.00;99259.81;5053950;28;20028;-70
2023/10/28 05:33:33;;;;;;;4.68;1.38;;;;;;;9.84;100.00;99256.28;5051811;28;20115;-69
2023/10/28 05:35:59;;;;;;;2.35;1.27;;;;;;;9.85;100.00;99262.53;5053569;28;20139;-68
2023/10/28 05:38:24;;;;;;;6.60;2.17;;;;;;;9.72;100.00;99261.91;5053592;28;20035;-69
2023/10/28 05:40:49;;;;;;;3.22;1.33;;;;;;;9.81;100.00;99258.69;5052409;28;20032;-70
2023/10/28 05:43:15;;;;;;;4.07;1.38;;;;;;;9.82;100.00;99260.34;5052506;28;20123;-70
2023/10/28 05:45:40;;;;;;;4.90;2.08;;;;;;;9.69;100.00;99253.47;5052944;28;20068;-70
2023/10/28 05:48:06;;;;;;;2.50;1.05;;;;;;;9.78;100.00;99256.53;5053846;28;20033;-70
2023/10/28 05:50:32;;;;;;;4.57;1.70;;;;;;;9.79;100.00;99271.66;5053287;28;20075;-70
2023/10/28 05:52:57;;;;;;;7.30;2.70;;;;;;;9.65;100.00;99263.19;5052153;28;20017;-70
2023/10/28 05:55:23;;;;;;;6.20;2.83;;;;;;;9.75;100.00;99264.06;5052900;28;20033;-69
2023/10/28 05:57:48;;;;;;;9.48;3.95;;;;;;;9.76;100.00;99264.88;5053423;28;20036;-70
2023/10/28 06:00:14;;;;;;;8.13;3.78;;;;;;;9.76;100.00;99272.97;5052096;28;20029;-69
2023/10/28 06:02:39;;;;;;;6.32;3.03;;;;;;;9.76;100.00;99281.09;5057011;28;20050;-69
2023/10/28 06:05:06;;;;;;;3.67;2.28;;;;;;;9.77;100.00;99271.91;5052762;28;20522;-70
2023/10/28 06:07:32;;;;;;;6.75;3.35;;;;;;;9.78;100.00;99283.53;5053013;28;20029;-69
2023/10/28 06:09:57;;;;;;;3.08;2.00;;;;;;;9.78;100.00;99286.22;5052939;28;20115;-69
2023/10/28 06:12:23;;;;;;;2.97;2.30;;;;;;;9.79;100.00;99279.78;5052293;28;20112;-69
2023/10/28 06:14:51;;;;;;;3.25;1.75;;;;;;;9.80;100.00;99278.69;5051856;28;20452;-69
2023/10/28 06:17:17;;;;;;;7.60;3.83;;;;;;;9.80;100.00;99286.78;5053056;28;20052;-70
2023/10/28 06:19:42;;;;;;;3.90;2.17;;;;;;;9.80;100.00;99284.91;5052767;28;20456;-70
2023/10/28 06:22:08;;;;;;;5.82;2.67;;;;;;;9.74;100.00;99278.66;5051036;28;20039;-69
2023/10/28 06:24:34;;;;;;;3.90;2.03;;;;;;;9.81;100.00;99286.53;5052303;28;20456;-70
2023/10/28 06:26:59;;;;;;;2.97;1.65;;;;;;;9.82;100.00;99284.66;5051656;28;20090;-71
2023/10/28 06:29:26;;;;;;;3.78;1.63;;;;;;;9.86;100.00;99293.88;5051034;28;20029;-70
2023/10/28 06:31:51;;;;;;;7.03;2.53;;;;;;;9.91;100.00;99291.19;5051689;28;20040;-70
2023/10/28 06:34:17;;;;;;;4.07;2.42;;;;;;;9.96;100.00;99288.53;5053016;28;20120;-70
2023/10/28 06:36:42;;;;;;;4.25;1.67;;;;;;;9.99;100.00;99288.00;5052762;28;20029;-71
2023/10/28 06:39:10;;;;;;;6.90;1.65;;;;;;;10.02;100.00;99297.50;5050686;28;20384;-70
2023/10/28 06:41:36;;;;;;;5.45;2.00;;;;;;;10.05;100.00;99286.97;5052126;28;20460;-70
2023/10/28 06:44:05;;;;;;;6.82;2.50;;;;;;;10.00;100.00;99289.66;5052487;28;20021;-71
2023/10/28 06:46:32;;;;;;;6.95;2.70;;;;;;;9.95;100.00;99286.91;5052312;28;20025;-71
2023/10/28 06:48:58;;;;;;;6.25;1.50;;;;;;;10.05;100.00;99286.16;5051148;28;20036;-72
2023/10/28 06:51:23;;;;;;;6.88;2.08;;;;;;;10.07;100.00;99289.41;5052050;28;20036;-71
2023/10/28 06:53:48;;;;;;;3.25;1.73;;;;;;;10.07;100.00;99289.41;5051229;28;20120;-72
2023/10/28 06:56:15;;;;;;;7.68;1.70;;;;;;;10.05;100.00;99291.56;5050862;28;20025;-72
2023/10/28 06:58:41;;;;;;;7.60;2.65;;;;;;;9.93;100.00;99284.47;5051787;28;20461;-71
2023/10/28 07:01:09;;;;;;;5.57;1.63;;;;;;;10.04;100.00;99295.34;5052665;28;20056;-73
2023/10/28 07:03:34;;;;;;;7.13;1.40;;;;;;;10.04;100.00;99287.22;5071043;28;20185;-73
2023/10/28 07:06:00;;;;;;;7.05;1.67;;;;;;;10.04;100.00;99289.94;5072551;28;20469;-71
2023/10/28 07:08:25;;;;;;;9.02;3.05;;;;;;;9.95;100.00;99295.03;5059269;28;20032;-72
2023/10/28 07:10:50;;;;;;;9.23;2.70;;;;;;;9.91;100.00;99288.50;5052353;28;20379;-71
2023/10/28 07:13:16;;;;;;;4.65;1.83;;;;;;;10.03;100.00;99302.63;5050880;28;20032;-72
2023/10/28 07:15:41;;;;;;;3.33;1.92;;;;;;;10.06;100.00;99304.00;5052110;28;20365;-72
2023/10/28 07:18:08;;;;;;;7.97;1.90;;;;;;;10.07;100.00;99295.66;5050619;28;20037;-72
2023/10/28 07:20:34;;;;;;;3.40;1.70;;;;;;;10.09;100.00;99304.31;5051992;28;20459;-73
2023/10/28 07:23:02;;;;;;;4.47;1.92;;;;;;;10.11;100.00;99294.06;5051607;28;20056;-71
2023/10/28 07:25:28;;;;;;;5.70;2.70;;;;;;;10.14;100.00;99305.41;5050775;28;20489;-72
2023/10/28 07:27:53;;;;;;;3.80;1.73;;;;;;;10.14;100.00;99298.13;5049922;28;20064;-73
2023/10/28 07:30:19;;;;;;;4.75;2.00;;;;;;;10.16;100.00;99295.16;5046106;28;20029;-73
2023/10/28 07:32:44;;;;;;;10.18;5.10;;;;;;;10.08;100.00;99302.69;5050652;28;20463;-73
2023/10/28 07:35:09;;;;;;;9.85;3.70;;;;;;;10.19;100.00;99310.84;5051897;28;20120;-73
2023/10/28 07:37:35;;;;;;;6.68;2.45;;;;;;;10.19;100.00;99314.38;5067212;28;20041;-73
2023/10/28 07:40:03;;;;;;;5.80;2.53;;;;;;;10.24;100.00;99316.31;5051812;28;20021;-72
2023/10/28 07:42:28;;;;;;;3.00;2.00;;;;;;;10.27;100.00;99310.38;5050587;28;20033;-72
2023/10/28 07:44:53;;;;;;;6.93;2.28;;;;;;;10.28;100.00;99317.38;5051159;28;20104;-72
2023/10/28 07:47:19;;;;;;;9.98;3.63;;;;;;;10.31;100.00;99322.31;5050144;28;20082;-73
2023/10/28 07:49:45;;;;;;;4.80;2.63;;;;;;;10.33;100.00;99314.75;5049549;28;20449;-72
2023/10/28 07:52:10;;;;;;;7.57;2.97;;;;;;;10.36;100.00;99325.06;5054805;28;20111;-72
2023/10/28 07:54:36;;;;;;;5.95;2.88;;;;;;;10.39;100.00;99324.53;5054733;28;20116;-71
2023/10/28 07:57:02;;;;;;;11.77;5.63;;;;;;;10.34;100.00;99335.34;5054849;28;20373;-71
2023/10/28 07:59:27;;;;;;;6.85;2.28;;;;;;;10.38;100.00;99335.63;5052768;28;20056;-71
2023/10/28 08:01:53;;;;;;;9.05;2.58;;;;;;;10.48;100.00;99334.84;5048277;28;20065;-71
2023/10/28 08:04:21;;;;;;;4.53;1.85;;;;;;;10.52;100.00;99333.25;5051907;28;20056;-72
2023/10/28 08:06:46;;;;;;;5.88;1.70;;;;;;;10.56;100.00;99345.19;5054342;28;20043;-71
2023/10/28 08:09:12;;;;;;;5.55;1.30;;;;;;;10.60;100.00;99352.50;5053783;28;20112;-72
2023/10/28 08:11:37;;;;;;;4.82;1.50;;;;;;;10.64;100.00;99352.78;5054511;28;20029;-72
2023/10/28 08:14:03;;;;;;;8.63;2.53;;;;;;;10.63;100.00;99334.97;5053267;28;20537;-72
2023/10/28 08:16:29;;;;;;;8.13;1.55;;;;;;;10.72;100.00;99351.47;5054486;28;20079;-73
2023/10/28 08:18:55;;;;;;;7.10;1.48;;;;;;;10.75;100.00;99349.09;5054794;28;20079;-73
2023/10/28 08:21:20;;;;;;;7.22;1.50;;;;;;;10.79;100.00;99352.91;5054832;28;20029;-73
2023/10/28 08:23:46;;;;;;;9.27;2.38;;;;;;;10.75;100.00;99349.09;5052953;28;20372;-72
2023/10/28 08:26:17;;;;;;;8.05;1.58;;;;;;;10.86;100.00;99357.25;5052653;28;20067;-72
2023/10/28 08:28:42;;;;;;;7.77;1.63;;;;;;;10.88;100.00;99358.59;5054077;28;20452;-72
2023/10/28 08:31:09;;;;;;;7.38;2.72;;;;;;;10.85;100.00;99355.63;5053797;28;20031;-72
2023/10/28 08:33:35;;;;;;;8.40;2.58;;;;;;;10.85;100.00;99356.41;5045465;28;20062;-71
2023/10/28 08:36:00;;;;;;;8.80;1.83;;;;;;;10.92;100.00;99362.41;5052313;28;20066;-71
2023/10/28 08:38:27;;;;;;;7.85;2.25;;;;;;;10.87;100.00;99361.56;5053932;28;20133;-71
2023/10/28 08:40:53;;;;;;;7.82;2.50;;;;;;;10.89;100.00;99360.22;5068319;28;20498;-71
2023/10/28 08:43:19;;;;;;;9.07;1.48;;;;;;;10.99;100.00;99371.13;5069513;28;20033;-75
2023/10/28 08:45:45;;;;;;;4.20;1.33;;;;;;;11.05;100.00;99368.41;5051740;28;20443;-70
2023/10/28 08:48:13;;;;;;;9.70;4.00;;;;;;;11.02;100.00;99372.50;5053736;28;20040;-71
2023/10/28 08:50:39;;;;;;;10.90;3.55;;;;;;;11.10;100.00;99371.97;5052296;28;20029;-72
2023/10/28 08:53:06;;;;;;;6.70;2.63;;;;;;;11.14;100.00;99383.91;5054675;28;20025;-71
2023/10/28 08:55:35;;;;;;;14.25;6.93;;;;;;;11.13;100.00;99376.03;5053835;28;20037;-71
2023/10/28 08:58:00;;;;;;;17.42;7.20;;;;;;;11.13;100.00;99381.47;5054341;28;20043;-71
2023/10/28 09:00:29;;;;;;;5.63;1.70;;;;;;;11.22;100.00;99382.56;5052035;28;20037;-70
2023/10/28 09:02:56;;;;;;;8.02;2.72;;;;;;;11.27;100.00;99392.59;5050591;28;20052;-71
2023/10/28 09:05:21;;;;;;;6.05;2.25;;;;;;;11.28;100.00;99383.41;5049996;28;20120;-71
2023/10/28 09:07:47;;;;;;;8.65;2.83;;;;;;;11.25;100.00;99383.94;5034105;28;20556;-73
2023/10/28 09:10:13;;;;;;;7.50;2.40;;;;;;;11.29;100.00;99385.03;5050136;28;20028;-71
2023/10/28 09:12:39;;;;;;;11.05;4.00;;;;;;;11.33;100.00;99388.84;5049503;28;20586;-69
2023/10/28 09:15:05;;;;;;;5.95;2.13;;;;;;;11.43;100.00;99397.00;5042107;28;20036;-70
2023/10/28 09:17:31;;;;;;;12.73;4.18;;;;;;;11.49;100.00;99395.94;5053205;28;20083;-70
2023/10/28 09:19:57;;;;;;;9.63;2.72;;;;;;;11.58;100.00;99396.22;5051128;28;20504;-71
2023/10/28 09:22:25;;;;;;;7.80;3.10;;;;;;;11.65;100.00;99393.25;5045004;28;20040;-71
2023/10/28 09:24:53;;;;;;;7.18;3.05;;;;;;;11.70;100.00;99387.84;5042747;28;20037;-70
2023/10/28 09:27:19;;;;;;;6.97;2.65;;;;;;;11.76;100.00;99397.63;5053375;28;20037;-73
2023/10/28 09:29:45;;;;;;;9.90;2.88;;;;;;;11.77;100.00;99399.22;5052063;28;20033;-71
2023/10/28 09:32:10;;;;;;;13.13;6.10;;;;;;;11.80;100.00;99397.88;5052680;28;20133;-75
2023/10/28 09:34:39;;;;;;;6.10;1.95;;;;;;;11.85;100.00;99398.72;5042021;28;20029;-71
2023/10/28 09:37:06;;;;;;;9.70;3.08;;;;;;;11.83;100.00;99400.88;5039221;28;20515;-71
2023/10/28 09:39:36;;;;;;;9.00;3.90;;;;;;;11.80;100.00;99395.19;5047271;28;20048;-70
2023/10/28 09:42:02;;;;;;;6.50;1.95;;;;;;;11.87;100.00;99403.88;5051267;28;20032;-70
2023/10/28 09:44:28;;;;;;;6.60;2.53;;;;;;;11.83;100.00;99405.47;5052709;28;20089;-72
2023/10/28 09:47:02;;;;;;;11.18;4.38;;;;;;;11.82;100.00;99401.97;5050291;28;20037;-70
2023/10/28 09:49:30;;;;;;;7.72;2.17;;;;;;;11.88;100.00;99398.19;5048713;28;20037;-70
2023/10/28 09:51:59;;;;;;;8.93;2.50;;;;;;;11.93;100.00;99400.09;5042383;28;20025;-71
2023/10/28 09:54:29;;;;;;;4.72;2.00;;;;;;;11.93;100.00;99394.69;5051677;28;20036;-71
2023/10/28 09:56:59;;;;;;;9.77;3.00;;;;;;;11.94;100.00;99403.63;5052739;28;20147;-75
2023/10/28 09:59:26;;;;;;;5.10;1.52;;;;;;;11.94;100.00;99400.91;5052061;28;20112;-72
2023/10/28 10:02:12;;;;;;;9.57;2.85;;;;;;;11.95;100.00;99408.78;5048643;28;20106;-72
2023/10/28 10:04:58;;;;;;;4.45;1.60;;;;;;;12.03;100.00;99404.72;5049356;28;20052;-71
2023/10/28 10:07:24;;;;;;;16.83;6.75;;;;;;;12.12;100.00;99400.38;5051180;28;20056;-71
2023/10/28 10:09:49;;;;;;;3.00;1.20;;;;;;;12.18;100.00;99402.03;5051641;28;20055;-70
2023/10/28 10:12:15;;;;;;;8.93;2.92;;;;;;;12.25;100.00;99400.94;5052092;28;20032;-71
2023/10/28 10:14:47;;;;;;;6.85;2.30;;;;;;;12.30;100.00;99419.91;5050647;28;20064;-70
2023/10/28 10:17:33;;;;;;;7.80;2.53;;;;;;;12.34;100.00;99416.38;5064583;28;20039;-72
2023/10/28 10:20:04;;;;;;;3.05;1.08;;;;;;;12.36;100.00;99424.25;5047305;28;20025;-72
2023/10/28 20:40:54;;;;;;;1.60;1.50;;;;;;;11.10;100.00;99193.28;5089466;27;20389;-71
2023/10/28 20:43:20;;;;;;;2.38;1.90;;;;;;;11.09;100.00;99194.38;5090081;28;20051;-67
2023/10/28 20:45:45;;;;;;;2.10;1.83;;;;;;;11.11;100.00;99194.09;5089884;28;20028;-69
2023/10/28 20:48:11;;;;;;;2.53;1.63;;;;;;;11.11;100.00;99177.84;5085328;28;20032;-68
2023/10/28 20:50:37;;;;;;;4.80;1.70;;;;;;;11.11;100.00;99165.16;5067694;28;20068;-69
2023/10/28 20:53:02;;;;;;;2.72;1.50;;;;;;;11.13;100.00;99159.47;5069240;28;20048;-68
2023/10/28 20:55:28;;;;;;;1.67;1.50;;;;;;;11.12;100.00;99157.84;5069373;28;20025;-70
2023/10/28 20:57:53;;;;;;;5.20;2.20;;;;;;;11.12;100.00;99163.25;5069588;28;20052;-70
2023/10/28 21:00:18;;;;;;;2.65;1.90;;;;;;;11.15;100.00;99152.69;5068455;28;20029;-68
2023/10/28 21:02:44;;;;;;;4.15;1.83;;;;;;;11.19;100.00;99147.56;5084022;28;20052;-69
2023/10/28 21:05:10;;;;;;;4.18;2.47;;;;;;;11.17;100.00;99150.53;5065412;28;20041;-75
